createdAt,value
2023-07-03T00:00:19.378Z,98844.75
2023-07-03T00:02:54.777Z,98842.75
2023-07-03T00:05:26.030Z,98836.69
2023-07-03T00:07:55.894Z,98836.50
2023-07-03T00:10:25.798Z,98829.81
2023-07-03T00:12:55.595Z,98823.47
2023-07-03T00:15:25.404Z,98822.34
2023-07-03T00:17:57.733Z,98818.09
2023-07-03T00:20:29.090Z,98826.47
2023-07-03T00:22:59.179Z,98832.53
2023-07-03T00:25:28.922Z,98829.00
2023-07-03T00:27:58.721Z,98834.72
2023-07-03T00:30:28.507Z,98844.00
2023-07-03T00:33:00.967Z,98839.31
2023-07-03T00:35:30.742Z,98838.31
2023-07-03T00:38:00.505Z,98841.38
2023-07-03T00:40:30.269Z,98837.16
2023-07-03T00:43:00.309Z,98830.31
2023-07-03T00:45:30.376Z,98836.66
2023-07-03T00:48:03.023Z,98839.97
2023-07-03T00:50:32.963Z,98847.53
2023-07-03T00:53:07.642Z,98844.91
2023-07-03T00:55:37.515Z,98839.78
2023-07-03T00:58:07.266Z,98843.53
2023-07-03T01:00:43.658Z,98851.16
2023-07-03T01:03:26.304Z,98846.94
2023-07-03T01:05:57.756Z,98839.94
2023-07-03T01:08:28.857Z,98841.38
2023-07-03T01:10:59.558Z,98834.00
2023-07-03T01:13:32.285Z,98839.31
2023-07-03T01:16:02.833Z,98835.53
2023-07-03T01:18:36.483Z,98833.09
2023-07-03T01:21:11.895Z,98838.13
2023-07-03T01:23:48.094Z,98836.34
2023-07-03T01:26:22.959Z,98840.13
2023-07-03T01:28:58.470Z,98835.34
2023-07-03T01:31:31.514Z,98828.69
2023-07-03T01:34:03.716Z,98814.94
2023-07-03T01:36:34.906Z,98821.91
2023-07-03T01:39:06.549Z,98834.94
2023-07-03T01:41:40.016Z,98839.09
2023-07-03T01:44:09.772Z,98836.22
2023-07-03T01:46:39.599Z,98845.56
2023-07-03T01:49:15.583Z,98845.19
2023-07-03T01:51:49.252Z,98836.38
2023-07-03T01:54:27.459Z,98831.03
2023-07-03T01:57:04.280Z,98825.84
2023-07-03T01:59:38.017Z,98832.31
2023-07-03T02:02:14.168Z,98832.97
2023-07-03T02:04:47.970Z,98844.00
2023-07-03T02:07:20.275Z,98824.41
2023-07-03T02:09:50.665Z,98823.72
2023-07-03T02:12:23.087Z,98810.88
2023-07-03T02:14:52.912Z,98806.88
2023-07-03T02:17:22.759Z,98807.16
2023-07-03T02:19:53.529Z,98814.09
2023-07-03T02:22:24.113Z,98801.38
2023-07-03T02:24:53.970Z,98816.88
2023-07-03T02:27:26.359Z,98809.44
2023-07-03T02:29:56.132Z,98811.31
2023-07-03T02:32:26.168Z,98821.16
2023-07-03T02:34:55.907Z,98822.34
2023-07-03T02:37:25.703Z,98826.03
2023-07-03T02:39:56.218Z,98813.16
2023-07-03T02:42:29.291Z,98814.06
2023-07-03T02:45:00.731Z,98825.41
2023-07-03T02:47:31.740Z,98826.06
2023-07-03T02:50:02.068Z,98815.19
2023-07-03T02:52:32.798Z,98817.09
2023-07-03T02:55:03.074Z,98815.88
2023-07-03T02:57:36.220Z,98824.09
2023-07-03T03:00:08.672Z,98827.56
2023-07-03T03:02:39.100Z,98829.56
2023-07-03T03:05:10.771Z,98826.94
2023-07-03T03:07:41.237Z,98825.41
2023-07-03T03:10:11.846Z,98816.34
2023-07-03T03:12:44.199Z,98816.53
2023-07-03T03:15:14.059Z,98812.31
2023-07-03T03:17:43.854Z,98798.59
2023-07-03T03:20:15.291Z,98794.78
2023-07-03T03:22:45.623Z,98800.13
2023-07-03T03:25:15.528Z,98803.91
2023-07-03T03:27:47.894Z,98801.94
2023-07-03T03:30:17.746Z,98810.91
2023-07-03T03:32:48.629Z,98799.75
2023-07-03T03:35:18.443Z,98809.84
2023-07-03T03:37:48.337Z,98815.44
2023-07-03T03:40:18.569Z,98824.91
2023-07-03T03:42:50.906Z,98820.63
2023-07-03T03:45:20.981Z,98815.22
2023-07-03T03:47:52.654Z,98813.63
2023-07-03T03:50:22.542Z,98811.97
2023-07-03T03:52:52.423Z,98813.41
2023-07-03T03:55:22.178Z,98823.81
2023-07-03T03:57:55.540Z,98828.00
2023-07-03T04:00:25.885Z,98815.03
2023-07-03T04:02:55.942Z,98809.28
2023-07-03T04:05:26.611Z,98807.44
2023-07-03T04:07:56.494Z,98803.25
2023-07-03T04:10:26.214Z,98802.69
2023-07-03T04:12:58.621Z,98804.16
2023-07-03T04:15:28.437Z,98804.75
2023-07-03T04:17:58.227Z,98804.66
2023-07-03T04:20:29.215Z,98810.53
2023-07-03T04:22:59.104Z,98820.25
2023-07-03T04:25:28.878Z,98803.25
2023-07-03T04:28:01.213Z,98810.72
2023-07-03T04:30:30.985Z,98815.34
2023-07-03T04:33:00.789Z,98817.41
2023-07-03T04:35:30.614Z,98818.91
2023-07-03T04:38:02.629Z,98822.09
2023-07-03T04:40:33.021Z,98815.09
2023-07-03T04:43:07.394Z,98819.34
2023-07-03T04:45:42.457Z,98820.81
2023-07-03T04:48:12.759Z,98833.63
2023-07-03T04:50:42.576Z,98843.53
2023-07-03T04:53:12.611Z,98846.28
2023-07-03T04:55:42.521Z,98856.69
2023-07-03T04:58:14.877Z,98846.03
2023-07-03T05:00:44.813Z,98844.31
2023-07-03T05:03:15.236Z,98838.97
2023-07-03T05:05:45.148Z,98833.28
2023-07-03T05:08:14.955Z,98831.75
2023-07-03T05:10:44.770Z,98830.25
2023-07-03T05:13:17.110Z,98829.44
2023-07-03T05:15:46.864Z,98825.59
2023-07-03T05:18:16.764Z,98822.97
2023-07-03T05:20:46.798Z,98826.31
2023-07-03T05:23:17.290Z,98831.06
2023-07-03T05:25:53.132Z,98828.34
2023-07-03T05:28:27.223Z,98832.09
2023-07-03T05:30:58.248Z,98839.97
2023-07-03T05:33:29.593Z,98834.03
2023-07-03T05:36:03.726Z,98830.66
2023-07-03T05:38:34.745Z,98828.94
2023-07-03T05:41:04.846Z,98827.44
2023-07-03T05:43:37.255Z,98831.00
2023-07-03T05:46:07.029Z,98823.28
2023-07-03T05:48:36.755Z,98839.63
2023-07-03T05:51:06.768Z,98842.25
2023-07-03T05:53:36.519Z,98838.22
2023-07-03T05:56:06.561Z,98838.69
2023-07-03T05:58:38.937Z,98842.13
2023-07-03T06:01:08.704Z,98845.59
2023-07-03T06:03:38.621Z,98846.53
2023-07-03T06:06:09.876Z,98850.03
2023-07-03T06:08:39.665Z,98849.34
2023-07-03T06:11:10.047Z,98860.00
2023-07-03T06:13:42.586Z,98863.13
2023-07-03T06:16:13.720Z,98860.28
2023-07-03T06:18:44.531Z,98857.16
2023-07-03T06:21:14.291Z,98855.25
2023-07-03T06:23:44.030Z,98857.91
2023-07-03T06:26:14.652Z,98854.00
2023-07-03T06:28:47.030Z,98852.28
2023-07-03T06:31:16.949Z,98846.53
2023-07-03T06:33:46.689Z,98846.28
2023-07-03T06:36:22.351Z,98843.47
2023-07-03T06:38:56.631Z,98846.69
2023-07-03T06:41:29.781Z,98845.19
2023-07-03T06:44:02.127Z,98854.59
2023-07-03T06:46:31.999Z,98851.31
2023-07-03T06:49:01.904Z,98852.78
2023-07-03T06:51:32.081Z,98850.03
2023-07-03T06:54:01.902Z,98863.47
2023-07-03T06:56:32.570Z,98861.44
2023-07-03T06:59:04.955Z,98861.97
2023-07-03T07:01:34.949Z,98858.50
2023-07-03T07:04:04.827Z,98866.44
2023-07-03T07:06:35.037Z,98864.09
2023-07-03T07:09:07.030Z,98863.44
2023-07-03T07:11:38.254Z,98867.53
2023-07-03T07:14:10.592Z,98857.09
2023-07-03T07:16:41.722Z,98856.50
2023-07-03T07:19:13.132Z,98864.38
2023-07-03T07:21:45.122Z,98860.25
2023-07-03T07:24:19.634Z,98869.47
2023-07-03T07:26:51.734Z,98867.38
2023-07-03T07:29:26.400Z,98859.88
2023-07-03T07:31:57.703Z,98861.66
2023-07-03T07:34:28.181Z,98861.09
2023-07-03T07:36:57.933Z,98860.59
2023-07-03T07:39:28.970Z,98854.53
2023-07-03T07:41:58.889Z,98871.41
2023-07-03T07:44:31.242Z,98857.38
2023-07-03T07:47:00.972Z,98871.56
2023-07-03T07:49:30.727Z,98877.91
2023-07-03T07:52:00.661Z,98868.50
2023-07-03T07:54:30.418Z,98879.06
2023-07-03T07:57:00.305Z,98865.56
2023-07-03T07:59:32.621Z,98868.47
2023-07-03T08:02:02.624Z,98881.63
2023-07-03T08:04:32.738Z,98883.94
2023-07-03T08:07:03.876Z,98884.47
2023-07-03T08:09:33.832Z,98875.94
2023-07-03T08:12:05.185Z,98882.56
2023-07-03T08:14:37.494Z,98883.69
2023-07-03T08:17:07.595Z,98875.06
2023-07-03T08:19:37.621Z,98881.56
2023-07-03T08:22:07.976Z,98899.63
2023-07-03T08:24:37.752Z,98882.41
2023-07-03T08:27:08.224Z,98889.09
2023-07-03T08:29:40.570Z,98881.53
2023-07-03T08:32:14.838Z,98885.72
2023-07-03T08:37:08.099Z,98890.25
2023-07-03T08:37:34.458Z,98889.34
2023-07-03T08:40:06.467Z,98890.06
2023-07-03T08:42:39.558Z,98897.81
2023-07-03T08:45:16.424Z,98903.38
2023-07-03T08:47:48.143Z,98902.59
2023-07-03T08:50:32.018Z,98898.59
2023-07-03T08:53:07.178Z,98902.22
2023-07-03T08:55:44.166Z,98889.03
2023-07-03T08:58:14.104Z,98911.50
2023-07-03T09:00:55.106Z,98894.66
2023-07-03T09:03:34.364Z,98907.94
2023-07-03T09:06:13.577Z,98904.69
2023-07-03T09:08:54.466Z,98897.94
2023-07-03T09:11:26.194Z,98901.94
2023-07-03T09:14:00.071Z,98899.25
2023-07-03T09:16:32.655Z,98903.44
2023-07-03T09:19:06.463Z,98906.00
2023-07-03T09:21:39.648Z,98912.78
2023-07-03T09:24:22.758Z,98911.13
2023-07-03T09:26:58.621Z,98885.94
2023-07-03T09:29:30.312Z,98894.66
2023-07-03T09:32:02.784Z,98895.97
2023-07-03T09:35:06.801Z,98892.41
2023-07-03T09:37:39.117Z,98898.47
2023-07-03T09:40:13.652Z,98898.47
2023-07-03T09:42:44.292Z,98897.72
2023-07-03T09:45:20.454Z,98897.16
2023-07-03T09:47:54.879Z,98890.09
2023-07-03T09:50:28.452Z,98894.38
2023-07-03T09:53:08.545Z,98890.94
2023-07-03T09:55:40.179Z,98903.28
2023-07-03T09:58:18.936Z,98904.53
2023-07-03T10:00:51.761Z,98905.59
2023-07-03T10:03:34.279Z,98895.38
2023-07-03T10:08:48.890Z,98903.88
2023-07-03T10:11:25.595Z,98901.78
2023-07-03T10:13:56.347Z,98898.75
2023-07-03T10:16:28.632Z,98904.13
2023-07-03T10:19:02.106Z,98908.53
2023-07-03T10:21:34.960Z,98910.19
2023-07-03T10:24:05.507Z,98905.78
2023-07-03T10:26:40.586Z,98910.22
2023-07-03T10:29:18.050Z,98907.28
2023-07-03T10:31:52.973Z,98913.63
2023-07-03T10:34:30.724Z,98932.31
2023-07-03T10:37:06.487Z,98929.06
2023-07-03T10:39:45.020Z,98929.75
2023-07-03T10:42:21.597Z,98928.41
2023-07-03T10:44:56.430Z,98927.47
2023-07-03T10:47:32.912Z,98935.78
2023-07-03T10:50:05.438Z,98931.28
2023-07-03T10:52:43.367Z,98932.22
2023-07-03T10:55:20.124Z,98936.66
2023-07-03T10:58:03.615Z,98937.22
2023-07-03T11:00:47.855Z,98942.22
2023-07-03T11:03:24.890Z,98937.41
2023-07-03T11:06:03.687Z,98940.25
2023-07-03T11:08:42.955Z,98945.72
2023-07-03T11:11:22.876Z,98944.41
2023-07-03T11:13:59.955Z,98942.72
2023-07-03T11:16:39.582Z,98956.22
2023-07-03T11:24:49.546Z,98947.34
2023-07-03T11:30:02.596Z,98945.00
2023-07-03T11:32:34.865Z,98943.34
2023-07-03T11:40:28.223Z,98945.91
2023-07-03T11:43:34.682Z,98952.06
2023-07-03T11:46:29.805Z,98945.81
2023-07-03T11:49:02.169Z,98955.81
2023-07-03T11:51:38.751Z,98968.31
2023-07-03T11:54:20.450Z,98962.88
2023-07-03T11:56:59.646Z,98950.78
2023-07-03T11:59:43.747Z,98959.94
2023-07-03T12:02:46.664Z,98956.94
2023-07-03T12:05:53.692Z,98965.50
2023-07-03T12:08:38.895Z,98969.59
2023-07-03T12:11:09.620Z,98963.88
2023-07-03T12:13:49.163Z,98978.28
2023-07-03T12:16:24.601Z,98982.63
2023-07-03T12:19:03.492Z,98984.00
2023-07-03T12:21:38.397Z,98982.50
2023-07-03T12:24:26.904Z,98982.50
2023-07-03T12:27:04.820Z,98980.22
2023-07-03T12:29:37.603Z,98977.53
2023-07-03T12:32:11.560Z,98971.88
2023-07-03T12:34:44.374Z,98967.13
2023-07-03T12:37:18.608Z,98967.50
2023-07-03T12:39:49.223Z,98967.63
2023-07-03T12:42:23.980Z,98956.81
2023-07-03T12:44:55.322Z,98954.88
2023-07-03T12:47:27.695Z,98961.50
2023-07-03T12:50:01.226Z,98963.03
2023-07-03T12:52:33.996Z,98964.84
2023-07-03T12:55:14.574Z,98971.09
2023-07-03T12:57:46.344Z,98974.47
2023-07-03T13:00:27.237Z,98970.38
2023-07-03T13:03:03.848Z,98972.13
2023-07-03T13:05:35.678Z,98969.25
2023-07-03T13:08:08.258Z,98977.03
2023-07-03T13:10:38.086Z,98975.16
2023-07-03T13:13:10.779Z,98966.69
2023-07-03T13:15:42.443Z,98969.38
2023-07-03T13:18:21.295Z,98974.22
2023-07-03T13:21:00.266Z,98977.50
2023-07-03T13:23:34.572Z,98977.97
2023-07-03T13:26:08.584Z,98978.41
2023-07-03T13:28:41.476Z,98983.06
2023-07-03T13:31:15.306Z,98990.41
2023-07-03T13:34:04.221Z,98986.53
2023-07-03T13:36:36.783Z,98989.56
2023-07-03T13:39:09.834Z,98977.00
2023-07-03T13:41:40.870Z,98984.81
2023-07-03T13:44:13.019Z,98993.97
2023-07-03T13:46:44.169Z,98995.38
2023-07-03T13:49:17.694Z,98991.50
2023-07-03T13:51:49.225Z,98990.13
2023-07-03T13:54:20.001Z,98988.44
2023-07-03T13:56:49.896Z,98998.41
2023-07-03T13:59:19.691Z,99005.50
2023-07-03T14:01:49.501Z,98998.88
2023-07-03T14:04:21.975Z,98994.81
2023-07-03T14:06:51.774Z,98995.31
2023-07-03T14:09:21.662Z,98989.44
2023-07-03T14:11:51.428Z,98981.88
2023-07-03T14:14:21.436Z,98976.53
2023-07-03T14:16:51.202Z,98988.50
2023-07-03T14:19:23.675Z,98980.53
2023-07-03T14:21:53.399Z,98990.34
2023-07-03T14:24:23.175Z,98975.16
2023-07-03T14:26:52.956Z,98976.31
2023-07-03T14:29:22.693Z,98975.72
2023-07-03T14:31:52.478Z,98973.28
2023-07-03T14:34:26.441Z,98964.50
2023-07-03T14:36:56.210Z,98970.97
2023-07-03T14:39:25.934Z,98973.28
2023-07-03T14:41:56.080Z,98977.22
2023-07-03T14:44:25.835Z,98978.28
2023-07-03T14:46:57.062Z,98978.63
2023-07-03T14:49:29.375Z,98981.84
2023-07-03T14:51:59.133Z,98977.69
2023-07-03T14:54:29.512Z,98986.97
2023-07-03T14:56:59.324Z,98985.25
2023-07-03T14:59:29.281Z,98979.97
2023-07-03T15:01:59.150Z,98988.00
2023-07-03T15:04:31.922Z,98985.13
2023-07-03T15:07:02.174Z,98981.88
2023-07-03T15:09:31.948Z,98972.03
2023-07-03T15:12:01.748Z,98975.88
2023-07-03T15:14:31.473Z,98977.69
2023-07-03T15:17:01.725Z,98968.16
2023-07-03T15:19:34.535Z,98965.38
2023-07-03T15:22:04.250Z,98961.47
2023-07-03T15:24:34.194Z,98958.69
2023-07-03T15:27:04.108Z,98960.56
2023-07-03T15:29:33.913Z,98953.84
2023-07-03T15:32:03.714Z,98958.91
2023-07-03T15:34:36.063Z,98945.94
2023-07-03T15:37:06.082Z,98947.66
2023-07-03T15:39:35.982Z,98948.22
2023-07-03T15:42:05.945Z,98948.59
2023-07-03T15:44:35.798Z,98953.56
2023-07-03T15:47:09.447Z,98946.06
2023-07-03T15:49:41.939Z,98966.09
2023-07-03T15:52:12.429Z,98958.50
2023-07-03T15:54:42.182Z,98962.56
2023-07-03T15:57:11.941Z,98974.91
2023-07-03T15:59:41.733Z,98972.72
2023-07-03T16:02:11.758Z,98967.38
2023-07-03T16:04:45.691Z,98967.56
2023-07-03T16:07:15.493Z,98972.81
2023-07-03T16:09:45.523Z,98973.28
2023-07-03T16:12:16.482Z,98970.13
2023-07-03T16:14:49.102Z,98971.97
2023-07-03T16:17:19.018Z,98957.16
2023-07-03T16:20:11.322Z,98972.63
2023-07-03T16:22:41.241Z,98969.91
2023-07-03T16:25:12.073Z,98968.91
2023-07-03T16:27:41.808Z,98972.59
2023-07-03T16:30:12.442Z,98959.84
2023-07-03T16:32:42.226Z,98973.94
2023-07-03T16:35:14.719Z,98979.34
2023-07-03T16:37:44.580Z,98988.22
2023-07-03T16:40:15.194Z,98983.00
2023-07-03T16:42:45.067Z,98979.00
2023-07-03T16:45:15.556Z,98974.31
2023-07-03T16:47:45.396Z,98972.50
2023-07-03T16:50:18.132Z,98969.31
2023-07-03T16:52:49.411Z,98972.84
2023-07-03T16:55:19.363Z,98969.34
2023-07-03T16:57:49.116Z,98972.84
2023-07-03T17:00:19.694Z,98958.38
2023-07-03T17:02:49.618Z,98957.66
2023-07-03T17:05:25.523Z,98951.25
2023-07-03T17:07:55.383Z,98951.81
2023-07-03T17:10:25.120Z,98952.41
2023-07-03T17:12:54.927Z,98945.06
2023-07-03T17:15:24.694Z,98949.34
2023-07-03T17:17:54.637Z,98960.41
2023-07-03T17:20:27.132Z,98955.59
2023-07-03T17:22:57.070Z,98948.31
2023-07-03T17:25:26.841Z,98962.41
2023-07-03T17:27:56.628Z,98962.03
2023-07-03T17:30:26.454Z,98962.94
2023-07-03T17:32:57.328Z,98961.72
2023-07-03T17:35:29.786Z,98964.59
2023-07-03T17:38:00.064Z,98961.44
2023-07-03T17:40:30.193Z,98950.50
2023-07-03T17:43:00.224Z,98949.06
2023-07-03T17:45:30.758Z,98965.81
2023-07-03T17:48:00.688Z,98954.38
2023-07-03T17:50:33.616Z,98955.13
2023-07-03T17:53:03.361Z,98953.13
2023-07-03T17:55:34.037Z,98951.84
2023-07-03T17:58:04.332Z,98957.53
2023-07-03T18:00:34.276Z,98937.13
2023-07-03T18:03:04.179Z,98943.16
2023-07-03T18:05:39.237Z,98941.00
2023-07-03T18:08:09.049Z,98937.31
2023-07-03T18:10:38.905Z,98942.41
2023-07-03T18:13:08.670Z,98932.47
2023-07-03T18:15:48.793Z,98935.28
2023-07-03T18:18:21.132Z,98941.47
2023-07-03T18:20:53.638Z,98931.78
2023-07-03T18:23:23.499Z,98929.19
2023-07-03T18:25:53.508Z,98942.22
2023-07-03T18:28:23.482Z,98935.97
2023-07-03T18:31:00.242Z,98934.13
2023-07-03T18:33:31.019Z,98932.16
2023-07-03T18:36:03.963Z,98938.00
2023-07-03T18:38:34.050Z,98938.66
2023-07-03T18:41:08.325Z,98944.50
2023-07-03T18:43:38.080Z,98940.06
2023-07-03T18:46:09.212Z,98940.25
2023-07-03T18:48:39.046Z,98937.47
2023-07-03T18:51:19.704Z,98936.78
2023-07-03T18:53:50.360Z,98939.09
2023-07-03T18:56:21.821Z,98941.84
2023-07-03T18:58:52.109Z,98940.25
2023-07-03T19:01:22.198Z,98940.19
2023-07-03T19:03:52.068Z,98940.19
2023-07-03T19:06:25.333Z,98931.97
2023-07-03T19:08:55.196Z,98937.66
2023-07-03T19:11:26.762Z,98935.78
2023-07-03T19:13:56.769Z,98939.06
2023-07-03T19:16:26.784Z,98934.63
2023-07-03T19:18:56.558Z,98942.03
2023-07-03T19:21:28.903Z,98940.09
2023-07-03T19:24:00.802Z,98937.09
2023-07-03T19:26:31.229Z,98941.22
2023-07-03T19:29:01.025Z,98937.97
2023-07-03T19:31:30.778Z,98941.41
2023-07-03T19:34:01.416Z,98938.59
2023-07-03T19:36:33.761Z,98940.25
2023-07-03T19:39:03.656Z,98945.75
2023-07-03T19:41:33.390Z,98945.16
2023-07-03T19:44:05.097Z,98944.94
2023-07-03T19:46:34.900Z,98946.44
2023-07-03T19:49:04.774Z,98947.91
2023-07-03T19:51:37.152Z,98957.53
2023-07-03T19:54:09.615Z,98946.13
2023-07-03T19:56:39.888Z,98950.34
2023-07-03T19:59:11.097Z,98947.06
2023-07-03T20:01:40.843Z,98953.63
2023-07-03T20:04:10.742Z,98944.69
2023-07-03T20:06:43.869Z,98947.75
2023-07-03T20:09:13.658Z,98947.59
2023-07-03T20:11:43.407Z,98946.56
2023-07-03T20:14:13.148Z,98946.69
2023-07-03T20:16:44.145Z,98939.56
2023-07-03T20:19:15.266Z,98941.59
2023-07-03T20:21:47.711Z,98940.78
2023-07-03T20:24:17.463Z,98937.09
2023-07-03T20:26:47.294Z,98932.59
2023-07-03T20:29:17.100Z,98931.06
2023-07-03T20:31:46.932Z,98931.50
2023-07-03T20:34:16.672Z,98937.41
2023-07-03T20:36:51.116Z,98944.47
2023-07-03T20:39:20.886Z,98938.81
2023-07-03T20:41:52.085Z,98935.16
2023-07-03T20:44:22.303Z,98936.06
2023-07-03T20:46:54.303Z,98940.34
2023-07-03T20:49:24.217Z,98931.63
2023-07-03T20:51:59.993Z,98929.84
2023-07-03T20:54:38.433Z,98927.56
2023-07-03T20:57:08.946Z,98931.91
2023-07-03T20:59:39.179Z,98932.00
2023-07-03T21:02:09.672Z,98924.44
2023-07-03T21:04:40.945Z,98926.28
2023-07-03T21:07:13.286Z,98926.19
2023-07-03T21:09:43.018Z,98926.72
2023-07-03T21:12:13.020Z,98914.66
2023-07-03T21:14:42.822Z,98909.81
2023-07-03T21:17:12.587Z,98907.31
2023-07-03T21:19:42.299Z,98914.53
2023-07-03T21:22:14.623Z,98905.22
2023-07-03T21:24:44.450Z,98915.00
2023-07-03T21:27:14.179Z,98909.50
2023-07-03T21:29:44.632Z,98907.50
2023-07-03T21:32:14.540Z,98898.03
2023-07-03T21:34:44.783Z,98893.88
2023-07-03T21:37:17.256Z,98894.94
2023-07-03T21:39:46.990Z,98895.31
2023-07-03T21:42:16.760Z,98888.50
2023-07-03T21:44:46.788Z,98890.94
2023-07-03T21:47:16.730Z,98892.50
2023-07-03T21:49:46.482Z,98890.22
2023-07-03T21:52:18.798Z,98886.44
2023-07-03T21:54:50.694Z,98893.81
2023-07-03T21:57:21.016Z,98894.94
2023-07-03T21:59:52.018Z,98888.13
2023-07-03T22:02:21.803Z,98885.84
2023-07-03T22:04:51.652Z,98893.53
2023-07-03T22:07:24.123Z,98901.13
2023-07-03T22:09:53.915Z,98911.03
2023-07-03T22:12:24.325Z,98902.69
2023-07-03T22:14:54.131Z,98909.06
2023-07-03T22:17:24.248Z,98905.16
2023-07-03T22:19:54.541Z,98902.31
2023-07-03T22:22:27.944Z,98898.47
2023-07-03T22:24:57.776Z,98895.19
2023-07-03T22:27:27.584Z,98898.72
2023-07-03T22:29:57.416Z,98900.53
2023-07-03T22:32:30.261Z,98901.72
2023-07-03T22:35:01.442Z,98888.28
2023-07-03T22:37:33.911Z,98894.63
2023-07-03T22:40:04.025Z,98902.34
2023-07-03T22:42:33.893Z,98899.81
2023-07-03T22:45:03.793Z,98904.72
2023-07-03T22:47:33.735Z,98896.78
2023-07-03T22:50:04.143Z,98892.88
2023-07-03T22:52:39.303Z,98886.34
2023-07-03T22:55:10.911Z,98880.94
2023-07-03T22:57:40.838Z,98890.63
2023-07-03T23:00:15.130Z,98892.63
2023-07-03T23:03:03.392Z,98889.66
2023-07-03T23:05:52.383Z,98892.00
2023-07-03T23:08:26.892Z,98888.47
2023-07-03T23:10:58.329Z,98882.28
2023-07-03T23:13:28.147Z,98884.97
2023-07-03T23:15:58.858Z,98883.69
2023-07-03T23:18:29.601Z,98883.47
2023-07-03T23:21:02.155Z,98877.69
2023-07-03T23:23:35.476Z,98879.63
2023-07-03T23:26:07.042Z,98879.63
2023-07-03T23:28:38.376Z,98877.06
2023-07-03T23:31:11.542Z,98879.78
2023-07-03T23:33:42.621Z,98881.28
2023-07-03T23:36:14.740Z,98883.13
2023-07-03T23:38:47.078Z,98881.28
2023-07-03T23:41:17.096Z,98880.31
2023-07-03T23:43:47.492Z,98887.00
2023-07-03T23:46:18.334Z,98893.34
2023-07-03T23:48:48.773Z,98884.50
2023-07-03T23:51:19.417Z,98886.81
2023-07-03T23:53:53.097Z,98886.41
2023-07-03T23:56:23.240Z,98882.84
2023-07-03T23:58:53.796Z,98887.13
